Time;durP1;ratioP1;P1;durP2;ratioP2;P2;SDS_P1;SDS_P2;PMS_P1;PMS_P2;Temp;Humidity;BMP_temperature;BMP_pressure;BME280_temperature;BME280_humidity;BME280_pressure;Samples;Min_cycle;Max_cycle;Signal;HPM_P1;HPM_P2
2021/10/01 00:02:06;;;;;;;1.92;0.45;;;;;;;;;;5012412;28;20030;-76
2021/10/01 00:04:32;;;;;;;1.08;0.40;;;;;;;;;;5013773;28;20427;-76
2021/10/01 00:06:57;;;;;;;2.00;0.45;;;;;;;;;;4995635;28;20028;-76
2021/10/01 00:09:22;;;;;;;1.63;0.40;;;;;;;;;;5012964;28;20022;-75
2021/10/01 00:11:51;;;;;;;1.38;0.45;;;;;;;;;;4995148;28;20032;-76
2021/10/01 00:14:17;;;;;;;2.58;0.40;;;;;;;;;;4996417;28;20050;-76
2021/10/01 00:16:42;;;;;;;2.50;0.57;;;;;;;;;;5013052;28;20511;-76
2021/10/01 00:19:07;;;;;;;1.58;0.40;;;;;;;;;;4995874;28;20440;-76
2021/10/01 00:21:32;;;;;;;1.92;0.50;;;;;;;;;;4994206;28;20037;-76
2021/10/01 00:23:58;;;;;;;2.50;0.55;;;;;;;;;;5011690;28;20038;-76
2021/10/01 00:26:23;;;;;;;3.47;0.75;;;;;;;;;;5012598;28;20440;-76
2021/10/01 00:28:48;;;;;;;1.67;0.50;;;;;;;;;;5012457;28;20443;-76
2021/10/01 00:31:14;;;;;;;2.47;0.60;;;;;;;;;;4994583;28;20029;-76
2021/10/01 00:33:39;;;;;;;1.10;0.52;;;;;;;;;;4995406;28;20022;-76
2021/10/01 00:36:04;;;;;;;2.53;0.32;;;;;;;;;;4995279;28;20084;-76
2021/10/01 00:38:29;;;;;;;1.75;0.50;;;;;;;;;;4994800;28;20452;-76
2021/10/01 00:40:54;;;;;;;2.42;0.50;;;;;;;;;;5012194;28;20026;-76
2021/10/01 00:43:20;;;;;;;2.15;0.50;;;;;;;;;;5012154;28;20064;-76
2021/10/01 00:45:45;;;;;;;2.13;0.52;;;;;;;;;;5012541;28;20084;-76
2021/10/01 00:48:10;;;;;;;2.38;0.43;;;;;;;;;;5012811;28;20099;-76
2021/10/01 00:50:35;;;;;;;2.10;0.70;;;;;;;;;;5012927;28;20029;-76
2021/10/01 00:53:01;;;;;;;1.45;0.50;;;;;;;;;;4993796;28;20396;-76
2021/10/01 00:55:28;;;;;;;3.20;0.47;;;;;;;;;;4992687;28;20472;-76
2021/10/01 00:57:53;;;;;;;2.53;0.77;;;;;;;;;;5012119;28;20045;-76
2021/10/01 01:00:27;;;;;;;1.63;0.52;;;;;;;;;;4978232;28;20018;-76
2021/10/01 01:02:57;;;;;;;1.50;0.80;;;;;;;;;;5012059;28;20041;-75
2021/10/01 01:05:24;;;;;;;1.38;0.40;;;;;;;;;;4994442;28;20029;-76
2021/10/01 01:07:54;;;;;;;2.30;0.50;;;;;;;;;;5012110;28;20014;-76
2021/10/01 01:10:22;;;;;;;0.73;0.45;;;;;;;;;;4994131;28;20034;-76
2021/10/01 01:12:56;;;;;;;2.03;0.43;;;;;;;;;;5012065;28;20022;-76
2021/10/01 01:15:26;;;;;;;0.50;0.40;;;;;;;;;;4994719;28;20049;-76
2021/10/01 01:17:55;;;;;;;0.90;0.50;;;;;;;;;;4994109;28;20018;-76
2021/10/01 01:20:24;;;;;;;1.38;0.45;;;;;;;;;;4994373;28;20018;-76
2021/10/01 01:22:56;;;;;;;0.70;0.40;;;;;;;;;;4994178;28;20044;-76
2021/10/01 01:25:35;;;;;;;2.17;0.60;;;;;;;;;;4993140;28;20026;-76
2021/10/01 01:28:11;;;;;;;1.60;0.35;;;;;;;;;;4993657;28;20022;-76
2021/10/01 01:30:46;;;;;;;2.38;0.60;;;;;;;;;;4978880;28;20018;-76
2021/10/01 01:33:16;;;;;;;1.27;0.50;;;;;;;;;;4993642;28;20085;-75
2021/10/01 01:35:43;;;;;;;1.65;0.30;;;;;;;;;;5025978;28;20021;-75
2021/10/01 01:38:16;;;;;;;2.15;0.40;;;;;;;;;;4994299;28;20045;-76
2021/10/01 01:40:43;;;;;;;1.25;0.40;;;;;;;;;;5011511;28;20026;-76
2021/10/01 01:43:09;;;;;;;1.17;0.40;;;;;;;;;;4993556;28;20021;-76
2021/10/01 01:45:36;;;;;;;0.45;0.30;;;;;;;;;;5011789;28;20018;-76
2021/10/01 01:48:03;;;;;;;1.40;0.40;;;;;;;;;;4994097;28;20033;-76
2021/10/01 01:50:28;;;;;;;0.82;0.40;;;;;;;;;;4994287;28;20104;-76
2021/10/01 01:52:54;;;;;;;1.27;0.30;;;;;;;;;;5010650;28;20536;-75
2021/10/01 01:55:19;;;;;;;0.80;0.30;;;;;;;;;;4997737;28;20029;-76
2021/10/01 01:57:47;;;;;;;3.13;0.40;;;;;;;;;;4994207;28;20014;-76
2021/10/01 02:00:12;;;;;;;1.58;0.30;;;;;;;;;;5011791;28;20017;-76
2021/10/01 02:02:38;;;;;;;2.03;0.30;;;;;;;;;;4977166;28;20026;-76
2021/10/01 02:05:03;;;;;;;1.40;0.40;;;;;;;;;;5011128;28;20384;-76
2021/10/01 02:07:29;;;;;;;1.92;0.60;;;;;;;;;;4993658;28;20082;-76
2021/10/01 02:09:55;;;;;;;0.82;0.30;;;;;;;;;;4993602;28;20053;-76
2021/10/01 02:12:20;;;;;;;1.80;0.40;;;;;;;;;;5012706;28;20127;-75
2021/10/01 02:14:48;;;;;;;1.25;0.38;;;;;;;;;;5014948;28;20028;-75
2021/10/01 02:17:14;;;;;;;0.88;0.60;;;;;;;;;;5015146;28;20029;-75
2021/10/01 02:19:40;;;;;;;1.98;0.55;;;;;;;;;;5015622;28;20022;-75
2021/10/01 02:22:06;;;;;;;1.88;0.40;;;;;;;;;;4997678;28;20025;-75
2021/10/01 02:24:32;;;;;;;1.88;0.40;;;;;;;;;;5012696;28;20161;-76
2021/10/01 02:27:00;;;;;;;2.45;0.60;;;;;;;;;;4997084;28;20104;-76
2021/10/01 02:29:29;;;;;;;0.60;0.30;;;;;;;;;;5015265;28;20028;-75
2021/10/01 02:32:26;;;;;;;1.80;0.40;;;;;;;;;;5015192;28;20084;-75
2021/10/01 02:34:52;;;;;;;1.90;0.40;;;;;;;;;;4948782;28;20026;-75
2021/10/01 02:37:17;;;;;;;1.85;0.40;;;;;;;;;;5014325;28;20093;-75
2021/10/01 02:39:44;;;;;;;1.15;0.30;;;;;;;;;;5014593;28;20502;-75
2021/10/01 02:42:11;;;;;;;2.40;0.47;;;;;;;;;;4997406;28;20093;-75
2021/10/01 02:44:36;;;;;;;0.73;0.30;;;;;;;;;;5014517;28;20036;-75
2021/10/01 02:47:02;;;;;;;1.52;0.43;;;;;;;;;;4979380;28;20476;-76
2021/10/01 02:49:28;;;;;;;1.63;0.40;;;;;;;;;;4996881;28;20026;-76
2021/10/01 02:51:55;;;;;;;1.50;0.40;;;;;;;;;;4980496;28;20065;-76
2021/10/01 02:54:33;;;;;;;0.95;0.30;;;;;;;;;;4995084;28;20077;-76
2021/10/01 02:57:07;;;;;;;1.10;0.30;;;;;;;;;;4993205;28;20052;-76
2021/10/01 02:59:33;;;;;;;0.80;0.40;;;;;;;;;;4994902;28;20026;-76
2021/10/01 03:01:59;;;;;;;1.85;0.30;;;;;;;;;;4995204;28;20077;-76
2021/10/01 03:04:24;;;;;;;2.92;0.50;;;;;;;;;;4995114;28;20030;-76
2021/10/01 03:06:51;;;;;;;0.50;0.30;;;;;;;;;;4994433;28;20015;-76
2021/10/01 03:09:17;;;;;;;1.58;0.55;;;;;;;;;;4992478;28;20507;-75
2021/10/01 03:11:42;;;;;;;3.15;0.70;;;;;;;;;;4976836;28;20030;-76
2021/10/01 03:14:08;;;;;;;0.68;0.50;;;;;;;;;;4993573;28;20026;-75
2021/10/01 03:16:34;;;;;;;1.42;0.63;;;;;;;;;;4993060;28;20029;-76
2021/10/01 03:18:59;;;;;;;0.60;0.40;;;;;;;;;;4991222;28;20019;-76
2021/10/01 03:21:25;;;;;;;1.90;0.65;;;;;;;;;;4994023;28;20030;-75
2021/10/01 03:23:52;;;;;;;0.88;0.70;;;;;;;;;;4994823;28;20030;-76
2021/10/01 03:26:18;;;;;;;1.10;0.68;;;;;;;;;;4995493;28;20101;-76
2021/10/01 03:28:43;;;;;;;2.35;0.90;;;;;;;;;;4992734;28;20169;-76
2021/10/01 03:31:09;;;;;;;2.55;1.00;;;;;;;;;;4993054;28;20518;-76
2021/10/01 03:33:35;;;;;;;1.55;0.98;;;;;;;;;;4991215;28;20042;-76
2021/10/01 03:36:00;;;;;;;1.85;1.30;;;;;;;;;;4994686;28;20321;-74
2021/10/01 03:38:25;;;;;;;1.02;0.73;;;;;;;;;;4993682;28;20014;-76
2021/10/01 03:40:51;;;;;;;4.10;1.17;;;;;;;;;;4976500;28;20523;-76
2021/10/01 03:43:16;;;;;;;7.90;1.80;;;;;;;;;;4994540;28;20080;-75
2021/10/01 03:45:42;;;;;;;1.88;1.25;;;;;;;;;;4992857;28;20060;-75
2021/10/01 03:48:07;;;;;;;2.33;1.25;;;;;;;;;;4993168;28;20025;-75
2021/10/01 03:50:33;;;;;;;3.13;1.48;;;;;;;;;;4991360;28;20030;-75
2021/10/01 03:52:58;;;;;;;2.15;0.90;;;;;;;;;;4993690;28;20014;-76
2021/10/01 03:55:24;;;;;;;3.10;1.35;;;;;;;;;;4988718;28;20039;-76
2021/10/01 03:57:50;;;;;;;2.00;1.10;;;;;;;;;;5013255;28;20538;-77
2021/10/01 04:00:16;;;;;;;4.18;1.73;;;;;;;;;;4995627;28;20028;-76
2021/10/01 04:02:42;;;;;;;3.35;1.80;;;;;;;;;;5013219;28;20052;-75
2021/10/01 04:05:07;;;;;;;3.90;1.55;;;;;;;;;;5013627;28;20105;-76
2021/10/01 04:07:33;;;;;;;2.60;1.20;;;;;;;;;;5012955;28;20037;-75
2021/10/01 04:09:58;;;;;;;3.70;1.30;;;;;;;;;;4994850;28;20030;-75
2021/10/01 04:12:23;;;;;;;2.50;1.10;;;;;;;;;;4979280;28;20117;-75
2021/10/01 04:14:49;;;;;;;2.83;1.60;;;;;;;;;;5012585;28;20118;-75
2021/10/01 04:17:14;;;;;;;1.25;1.00;;;;;;;;;;4995063;28;20107;-75
2021/10/01 04:19:39;;;;;;;2.20;0.93;;;;;;;;;;4979723;28;20022;-76
2021/10/01 04:22:05;;;;;;;1.70;0.75;;;;;;;;;;5012758;28;20026;-75
2021/10/01 04:24:30;;;;;;;1.05;0.57;;;;;;;;;;5006460;28;20054;-75
2021/10/01 04:26:55;;;;;;;3.13;0.80;;;;;;;;;;5012106;28;20029;-75
2021/10/01 04:29:21;;;;;;;0.88;0.50;;;;;;;;;;4994957;28;20034;-76
2021/10/01 04:31:46;;;;;;;2.03;0.60;;;;;;;;;;5012813;28;20018;-76
2021/10/01 04:34:11;;;;;;;2.20;0.70;;;;;;;;;;4994939;28;20037;-75
2021/10/01 04:36:36;;;;;;;1.50;0.75;;;;;;;;;;4995328;28;20120;-76
2021/10/01 04:39:02;;;;;;;2.33;0.60;;;;;;;;;;4994340;28;20010;-76
2021/10/01 04:41:28;;;;;;;2.70;0.73;;;;;;;;;;5012325;28;20054;-76
2021/10/01 04:43:53;;;;;;;1.50;0.55;;;;;;;;;;4979193;28;20128;-76
2021/10/01 04:46:18;;;;;;;2.35;0.82;;;;;;;;;;5012446;28;20057;-76
2021/10/01 04:48:44;;;;;;;3.45;0.50;;;;;;;;;;5012223;28;20084;-75
2021/10/01 04:51:09;;;;;;;1.40;0.65;;;;;;;;;;4994735;28;20032;-75
2021/10/01 04:53:34;;;;;;;1.20;0.40;;;;;;;;;;4993454;28;20468;-76
2021/10/01 04:55:59;;;;;;;1.35;0.50;;;;;;;;;;4992599;28;20258;-75
2021/10/01 04:58:25;;;;;;;1.33;0.60;;;;;;;;;;4994303;28;20029;-75
2021/10/01 05:00:50;;;;;;;2.55;0.90;;;;;;;;;;5012483;28;20037;-75
2021/10/01 05:03:15;;;;;;;1.80;0.55;;;;;;;;;;5012023;28;20030;-75
2021/10/01 05:05:40;;;;;;;1.30;0.47;;;;;;;;;;5011991;28;20037;-76
2021/10/01 05:08:05;;;;;;;2.80;0.80;;;;;;;;;;4994006;28;20362;-73
2021/10/01 05:10:30;;;;;;;1.77;0.68;;;;;;;;;;5010812;28;20036;-74
2021/10/01 05:12:56;;;;;;;1.83;0.60;;;;;;;;;;4978244;28;20033;-74
2021/10/01 05:15:22;;;;;;;2.28;0.80;;;;;;;;;;4994477;28;20534;-75
2021/10/01 05:17:47;;;;;;;3.03;0.73;;;;;;;;;;4985498;28;20051;-77
2021/10/01 05:20:13;;;;;;;1.48;0.80;;;;;;;;;;4993897;28;20057;-76
2021/10/01 05:22:39;;;;;;;2.45;0.50;;;;;;;;;;5011565;28;20159;-75
2021/10/01 05:25:05;;;;;;;1.90;0.60;;;;;;;;;;5008143;28;20026;-84
2021/10/01 05:27:30;;;;;;;3.08;0.82;;;;;;;;;;5001593;28;20065;-75
2021/10/01 05:29:55;;;;;;;2.95;0.90;;;;;;;;;;4993553;28;20068;-74
2021/10/01 05:32:20;;;;;;;2.88;1.20;;;;;;;;;;4994314;28;20028;-78
2021/10/01 05:34:46;;;;;;;3.63;1.10;;;;;;;;;;5011018;28;20026;-74
2021/10/01 05:37:12;;;;;;;3.50;1.63;;;;;;;;;;4993532;28;20010;-76
2021/10/01 05:39:37;;;;;;;2.88;1.45;;;;;;;;;;5009872;28;20045;-77
2021/10/01 05:42:02;;;;;;;4.03;1.33;;;;;;;;;;5008536;28;20032;-77
2021/10/01 05:44:28;;;;;;;5.03;1.50;;;;;;;;;;4991657;28;20381;-77
2021/10/01 05:46:53;;;;;;;3.50;1.67;;;;;;;;;;4995135;28;20124;-76
2021/10/01 05:49:27;;;;;;;3.58;1.50;;;;;;;;;;4999778;28;20018;-78
2021/10/01 05:51:59;;;;;;;2.25;1.05;;;;;;;;;;5017179;28;20539;-78
2021/10/01 05:54:24;;;;;;;6.30;1.70;;;;;;;;;;4995351;28;20019;-79
2021/10/01 05:56:54;;;;;;;4.70;1.58;;;;;;;;;;4984709;28;20046;-78
2021/10/01 05:59:19;;;;;;;2.67;1.40;;;;;;;;;;4999993;28;20029;-77
2021/10/01 06:01:45;;;;;;;3.00;1.40;;;;;;;;;;5018098;28;20029;-76
2021/10/01 06:04:11;;;;;;;4.32;1.70;;;;;;;;;;4999803;28;20065;-79
2021/10/01 06:06:36;;;;;;;3.60;1.30;;;;;;;;;;5018211;28;20506;-73
2021/10/01 06:09:02;;;;;;;2.90;1.20;;;;;;;;;;5016481;28;20030;-73
2021/10/01 06:11:27;;;;;;;7.28;2.92;;;;;;;;;;5003762;28;20030;-73
2021/10/01 06:13:53;;;;;;;5.13;0.95;;;;;;;;;;5017352;28;20030;-74
2021/10/01 06:16:18;;;;;;;5.30;0.70;;;;;;;;;;5017841;28;20105;-74
2021/10/01 06:18:44;;;;;;;2.58;0.80;;;;;;;;;;5017405;28;20054;-74
2021/10/01 06:21:09;;;;;;;2.00;0.80;;;;;;;;;;4965727;28;20069;-74
2021/10/01 06:23:34;;;;;;;5.65;1.10;;;;;;;;;;4994224;28;20080;-73
2021/10/01 06:26:04;;;;;;;5.70;2.42;;;;;;;;;;4996300;28;20033;-74
2021/10/01 06:28:29;;;;;;;5.85;2.03;;;;;;;;;;4999987;28;20025;-74
2021/10/01 06:30:57;;;;;;;7.70;1.65;;;;;;;;;;4999677;28;20026;-73
2021/10/01 06:33:23;;;;;;;4.85;0.80;;;;;;;;;;5017783;28;20025;-73
2021/10/01 06:35:48;;;;;;;1.98;0.90;;;;;;;;;;4999543;28;20030;-73
2021/10/01 06:38:13;;;;;;;3.65;1.90;;;;;;;;;;4999346;28;20360;-73
2021/10/01 06:40:38;;;;;;;2.42;1.45;;;;;;;;;;5017223;28;20072;-72
2021/10/01 06:43:07;;;;;;;2.17;0.40;;;;;;;;;;4983382;28;20034;-72
2021/10/01 06:45:33;;;;;;;3.88;0.60;;;;;;;;;;4983186;28;20105;-72
2021/10/01 06:51:15;;;;;;;1.35;0.43;;;;;;;;;;5015985;28;20033;-71
2021/10/01 08:18:28;;;;;;;1.95;0.10;;;;;;;;;;4968807;28;20125;-71
2021/10/01 08:20:53;;;;;;;1.05;0.20;;;;;;;;;;4994618;28;20469;-72
2021/10/01 08:23:19;;;;;;;1.30;0.10;;;;;;;;;;4994903;28;20053;-71
2021/10/01 08:25:44;;;;;;;2.15;0.10;;;;;;;;;;4992939;28;20079;-72
2021/10/01 08:28:09;;;;;;;1.95;0.10;;;;;;;;;;5012181;28;20057;-72
2021/10/01 08:30:35;;;;;;;1.08;0.10;;;;;;;;;;5005631;28;20057;-72
2021/10/01 08:33:01;;;;;;;0.40;0.10;;;;;;;;;;5012820;28;20029;-71
2021/10/01 08:35:27;;;;;;;0.60;0.10;;;;;;;;;;5012477;28;20527;-72
2021/10/01 08:37:53;;;;;;;0.63;0.10;;;;;;;;;;5012133;28;20138;-72
2021/10/01 08:40:19;;;;;;;1.27;0.10;;;;;;;;;;5011233;28;20113;-72
2021/10/01 08:42:45;;;;;;;0.75;0.00;;;;;;;;;;5011381;28;20037;-71
2021/10/01 08:45:11;;;;;;;1.67;0.10;;;;;;;;;;5012614;28;20037;-72
2021/10/01 08:47:37;;;;;;;2.00;0.17;;;;;;;;;;5012373;28;20028;-71
2021/10/01 08:50:03;;;;;;;1.38;0.10;;;;;;;;;;5012469;28;20030;-71
2021/10/01 08:52:29;;;;;;;0.57;0.10;;;;;;;;;;5011249;28;20036;-71
2021/10/01 08:54:54;;;;;;;0.85;0.10;;;;;;;;;;4993900;28;20500;-72
2021/10/01 08:57:20;;;;;;;0.57;0.17;;;;;;;;;;4994300;28;20050;-73
2021/10/01 08:59:45;;;;;;;1.27;0.10;;;;;;;;;;5010510;28;20026;-73
2021/10/01 09:02:10;;;;;;;0.63;0.10;;;;;;;;;;5011444;28;20092;-74
2021/10/01 09:04:35;;;;;;;0.93;0.10;;;;;;;;;;4993606;28;20033;-72
2021/10/01 09:07:02;;;;;;;2.10;0.20;;;;;;;;;;5010735;28;20105;-73
2021/10/01 09:09:37;;;;;;;0.40;0.10;;;;;;;;;;5011635;28;20129;-73
2021/10/01 09:12:03;;;;;;;2.10;0.10;;;;;;;;;;5011592;28;20108;-74
2021/10/01 09:14:28;;;;;;;1.23;0.10;;;;;;;;;;4993622;28;20013;-74
2021/10/01 09:16:54;;;;;;;1.77;0.20;;;;;;;;;;5011296;28;20493;-77
2021/10/01 09:19:19;;;;;;;1.58;0.10;;;;;;;;;;4993815;28;20507;-74
2021/10/01 09:21:48;;;;;;;1.70;0.10;;;;;;;;;;4993174;28;20017;-72
2021/10/01 09:24:15;;;;;;;1.70;0.17;;;;;;;;;;4989559;28;20141;-73
2021/10/01 09:27:00;;;;;;;0.40;0.20;;;;;;;;;;5011402;28;20022;-73
2021/10/01 09:29:31;;;;;;;0.35;0.20;;;;;;;;;;5001553;28;20041;-72
2021/10/01 09:31:56;;;;;;;0.90;0.10;;;;;;;;;;5004785;28;20018;-75
2021/10/01 09:34:21;;;;;;;1.73;0.32;;;;;;;;;;4993908;28;20014;-73
2021/10/01 09:36:57;;;;;;;1.33;0.10;;;;;;;;;;4991836;28;20026;-73
2021/10/01 09:39:27;;;;;;;1.02;0.10;;;;;;;;;;4993411;28;20265;-73
2021/10/01 09:41:52;;;;;;;0.35;0.10;;;;;;;;;;4993625;28;20053;-72
2021/10/01 09:44:19;;;;;;;0.55;0.10;;;;;;;;;;4993521;28;20455;-73
2021/10/01 09:46:44;;;;;;;1.00;0.22;;;;;;;;;;4993561;28;20112;-73
2021/10/01 09:49:10;;;;;;;0.73;0.28;;;;;;;;;;4991794;28;20116;-72
2021/10/01 09:51:36;;;;;;;1.88;0.20;;;;;;;;;;4992823;28;20116;-73
2021/10/01 09:54:09;;;;;;;3.15;0.32;;;;;;;;;;4997825;28;20026;-73
2021/10/01 09:56:34;;;;;;;0.52;0.20;;;;;;;;;;5006760;28;20038;-73
2021/10/01 09:59:19;;;;;;;1.60;0.47;;;;;;;;;;5010956;28;20108;-73
2021/10/01 10:02:03;;;;;;;1.35;0.20;;;;;;;;;;5011033;28;20084;-72
2021/10/01 10:04:29;;;;;;;1.02;0.10;;;;;;;;;;5011165;28;20026;-72
2021/10/01 10:06:54;;;;;;;0.30;0.20;;;;;;;;;;4992440;28;20045;-72
2021/10/01 10:09:32;;;;;;;1.77;0.20;;;;;;;;;;5004946;28;20469;-72
2021/10/01 10:11:58;;;;;;;1.05;0.10;;;;;;;;;;5001855;28;20037;-72
2021/10/01 10:14:23;;;;;;;0.88;0.10;;;;;;;;;;5010999;28;20022;-71
2021/10/01 10:16:49;;;;;;;0.88;0.20;;;;;;;;;;4992803;28;20014;-72
2021/10/01 10:19:20;;;;;;;0.60;0.20;;;;;;;;;;4975278;28;20029;-73
2021/10/01 10:21:46;;;;;;;4.13;0.45;;;;;;;;;;4998942;28;20071;-73
2021/10/01 10:24:12;;;;;;;0.70;0.28;;;;;;;;;;5005601;28;20481;-73
2021/10/01 10:26:37;;;;;;;0.70;0.20;;;;;;;;;;4998611;28;20159;-72
2021/10/01 10:29:04;;;;;;;1.15;0.20;;;;;;;;;;4993061;28;20029;-72
2021/10/01 10:31:31;;;;;;;1.98;0.22;;;;;;;;;;4987424;28;20022;-72
2021/10/01 10:33:57;;;;;;;0.77;0.15;;;;;;;;;;5008667;28;20018;-71
2021/10/01 10:36:25;;;;;;;0.85;0.20;;;;;;;;;;4984982;28;20178;-72
2021/10/01 10:38:50;;;;;;;0.70;0.20;;;;;;;;;;4987026;28;20032;-72
2021/10/01 10:41:26;;;;;;;3.07;0.20;;;;;;;;;;4996564;28;20030;-73
2021/10/01 10:43:52;;;;;;;2.03;0.17;;;;;;;;;;5014672;28;20296;-72
2021/10/01 10:46:35;;;;;;;1.48;0.20;;;;;;;;;;4996494;28;20143;-72
2021/10/01 10:49:20;;;;;;;1.73;0.20;;;;;;;;;;4995701;28;20471;-71
2021/10/01 10:51:58;;;;;;;1.38;0.10;;;;;;;;;;4993284;28;20037;-71
2021/10/01 10:54:23;;;;;;;0.45;0.22;;;;;;;;;;4995193;28;20400;-73
2021/10/01 10:57:07;;;;;;;0.60;0.20;;;;;;;;;;5018643;28;20042;-72
2021/10/01 10:59:32;;;;;;;1.15;0.20;;;;;;;;;;5013872;28;20037;-73
2021/10/01 11:02:16;;;;;;;1.60;0.30;;;;;;;;;;4997138;28;20029;-72
2021/10/01 11:04:41;;;;;;;0.60;0.30;;;;;;;;;;5004127;28;20598;-74
2021/10/01 11:07:07;;;;;;;0.40;0.20;;;;;;;;;;5014281;28;20026;-72
2021/10/01 11:09:33;;;;;;;1.88;0.30;;;;;;;;;;4996027;28;20042;-73
2021/10/01 11:11:59;;;;;;;18.08;1.85;;;;;;;;;;4996006;28;20037;-72
2021/10/01 11:14:26;;;;;;;2.58;0.47;;;;;;;;;;5013580;28;20030;-72
2021/10/01 11:16:53;;;;;;;0.80;0.30;;;;;;;;;;5013980;28;20041;-73
2021/10/01 11:19:35;;;;;;;19.50;2.90;;;;;;;;;;5012798;28;20447;-72
2021/10/01 11:22:00;;;;;;;2.22;0.40;;;;;;;;;;5012925;28;20411;-75
2021/10/01 11:24:25;;;;;;;2.33;0.30;;;;;;;;;;4992680;28;20537;-71
2021/10/01 11:26:58;;;;;;;2.67;0.30;;;;;;;;;;5012707;28;20022;-73
2021/10/01 11:29:23;;;;;;;0.40;0.30;;;;;;;;;;4995937;28;20045;-73
2021/10/01 11:31:49;;;;;;;33.57;1.93;;;;;;;;;;5010916;28;20387;-74
2021/10/01 11:34:14;;;;;;;2.17;0.28;;;;;;;;;;4983559;28;20266;-73
2021/10/01 11:36:40;;;;;;;0.93;0.30;;;;;;;;;;4983169;28;20032;-74
2021/10/01 11:39:06;;;;;;;1.58;0.30;;;;;;;;;;5012582;28;20266;-73
2021/10/01 11:41:31;;;;;;;1.15;0.38;;;;;;;;;;5012205;28;20104;-72
2021/10/01 11:43:57;;;;;;;0.65;0.30;;;;;;;;;;5013635;28;20056;-74
2021/10/01 11:46:25;;;;;;;0.70;0.20;;;;;;;;;;4995050;28;20392;-73
2021/10/01 11:48:50;;;;;;;1.23;0.20;;;;;;;;;;5013061;28;20534;-72
2021/10/01 11:51:15;;;;;;;1.30;0.30;;;;;;;;;;5010884;28;20029;-73
2021/10/01 11:53:41;;;;;;;1.07;0.20;;;;;;;;;;4995291;28;20022;-73
2021/10/01 11:56:07;;;;;;;0.97;0.30;;;;;;;;;;5010315;28;20604;-72
2021/10/01 11:58:34;;;;;;;1.30;0.28;;;;;;;;;;5011188;28;20041;-72
2021/10/01 12:01:14;;;;;;;2.35;0.32;;;;;;;;;;5009460;28;20038;-72
2021/10/01 12:03:56;;;;;;;0.40;0.20;;;;;;;;;;4993026;28;20032;-71
2021/10/01 12:06:23;;;;;;;2.40;0.32;;;;;;;;;;4994647;28;20459;-72
2021/10/01 12:08:59;;;;;;;1.08;0.30;;;;;;;;;;5012271;28;20018;-72
2021/10/01 12:11:29;;;;;;;5.07;0.30;;;;;;;;;;5012268;28;20375;-72
2021/10/01 12:13:54;;;;;;;2.50;0.30;;;;;;;;;;4995058;28;20485;-72
2021/10/01 12:16:20;;;;;;;2.53;0.32;;;;;;;;;;4995275;28;20428;-73
2021/10/01 12:18:57;;;;;;;1.60;0.40;;;;;;;;;;5011999;28;20018;-71
2021/10/01 12:21:23;;;;;;;1.40;0.40;;;;;;;;;;5010891;28;20480;-72
2021/10/01 12:23:50;;;;;;;0.95;0.30;;;;;;;;;;4990024;28;20036;-72
2021/10/01 12:26:20;;;;;;;1.13;0.45;;;;;;;;;;5002737;28;20030;-72
2021/10/01 12:28:57;;;;;;;1.58;0.40;;;;;;;;;;4994638;28;20018;-72
2021/10/01 12:31:23;;;;;;;2.60;0.30;;;;;;;;;;5011898;28;20022;-72
2021/10/01 12:33:48;;;;;;;2.75;0.40;;;;;;;;;;4982775;28;20332;-72
2021/10/01 12:36:17;;;;;;;2.95;0.40;;;;;;;;;;4986670;28;20073;-72
2021/10/01 12:38:43;;;;;;;5.20;0.50;;;;;;;;;;5011817;28;20108;-72
2021/10/01 12:41:10;;;;;;;1.58;0.40;;;;;;;;;;5011316;28;20129;-73
2021/10/01 12:43:49;;;;;;;2.60;0.32;;;;;;;;;;5012634;28;20021;-71
2021/10/01 12:46:34;;;;;;;2.72;0.50;;;;;;;;;;5010922;28;20449;-72
2021/10/01 12:49:12;;;;;;;3.95;0.63;;;;;;;;;;4993130;28;20033;-72
2021/10/01 12:51:37;;;;;;;2.15;0.40;;;;;;;;;;5010675;28;20025;-73
2021/10/01 12:54:22;;;;;;;4.40;0.68;;;;;;;;;;4975625;28;20440;-73
2021/10/01 12:57:06;;;;;;;0.75;0.40;;;;;;;;;;5006591;28;20049;-73
2021/10/01 12:59:36;;;;;;;1.25;0.50;;;;;;;;;;4993294;28;20084;-73
2021/10/01 13:02:12;;;;;;;1.15;0.38;;;;;;;;;;4977724;28;20045;-73
2021/10/01 13:04:45;;;;;;;1.45;0.30;;;;;;;;;;5012113;28;20137;-72
2021/10/01 13:07:28;;;;;;;1.90;0.30;;;;;;;;;;5012326;28;20107;-72
2021/10/01 13:09:55;;;;;;;0.70;0.30;;;;;;;;;;5000312;28;20033;-73
2021/10/01 13:12:34;;;;;;;0.77;0.43;;;;;;;;;;4995929;28;20498;-72
2021/10/01 13:15:26;;;;;;;1.08;0.35;;;;;;;;;;5012191;28;20108;-72
2021/10/01 13:17:59;;;;;;;3.15;0.40;;;;;;;;;;5007661;28;20037;-72
2021/10/01 13:20:26;;;;;;;2.13;0.38;;;;;;;;;;5009142;28;20041;-73
2021/10/01 13:23:01;;;;;;;3.42;0.57;;;;;;;;;;4975795;28;20385;-72
2021/10/01 13:25:27;;;;;;;1.27;0.30;;;;;;;;;;4988530;28;20427;-72
2021/10/01 13:27:53;;;;;;;2.70;0.40;;;;;;;;;;5011054;28;20021;-72
2021/10/01 13:30:19;;;;;;;2.97;0.40;;;;;;;;;;5011020;28;20405;-72
2021/10/01 13:32:44;;;;;;;0.95;0.30;;;;;;;;;;5008168;28;20030;-72
2021/10/01 13:35:11;;;;;;;0.93;0.43;;;;;;;;;;5010095;28;20026;-72
2021/10/01 13:37:37;;;;;;;0.80;0.30;;;;;;;;;;4994119;28;20030;-72
2021/10/01 13:40:02;;;;;;;1.02;0.20;;;;;;;;;;4993053;28;20022;-73
2021/10/01 13:42:28;;;;;;;1.95;0.40;;;;;;;;;;5011390;28;20380;-72
2021/10/01 13:44:53;;;;;;;3.20;0.53;;;;;;;;;;4993156;28;20765;-72
2021/10/01 13:47:18;;;;;;;3.57;0.50;;;;;;;;;;5010938;28;20037;-72
2021/10/01 13:49:43;;;;;;;1.50;0.40;;;;;;;;;;5011691;28;20115;-72
2021/10/01 13:52:08;;;;;;;1.80;0.47;;;;;;;;;;5010741;28;20621;-72
2021/10/01 13:54:34;;;;;;;1.43;0.57;;;;;;;;;;4991068;28;20285;-72
2021/10/01 13:56:59;;;;;;;3.93;0.40;;;;;;;;;;5011063;28;20289;-72
2021/10/01 13:59:24;;;;;;;2.65;0.43;;;;;;;;;;4977162;28;20323;-72
2021/10/01 14:01:49;;;;;;;1.92;0.60;;;;;;;;;;4993688;28;20026;-73
2021/10/01 14:04:14;;;;;;;4.20;0.40;;;;;;;;;;5002162;28;20041;-73
2021/10/01 14:06:40;;;;;;;1.57;0.63;;;;;;;;;;5010880;28;20275;-72
2021/10/01 14:09:05;;;;;;;1.20;0.50;;;;;;;;;;4995958;28;20288;-73
2021/10/01 14:11:30;;;;;;;4.57;0.73;;;;;;;;;;5014804;28;20076;-73
2021/10/01 14:13:56;;;;;;;3.00;0.40;;;;;;;;;;4997866;28;20029;-73
2021/10/01 14:16:21;;;;;;;1.90;0.52;;;;;;;;;;4996912;28;20677;-73
2021/10/01 14:18:46;;;;;;;2.03;0.35;;;;;;;;;;5014721;28;20029;-73
2021/10/01 14:21:12;;;;;;;1.30;0.40;;;;;;;;;;5014561;28;20030;-73
2021/10/01 14:23:38;;;;;;;1.23;0.40;;;;;;;;;;4990652;28;20030;-71
2021/10/01 14:26:03;;;;;;;1.88;0.60;;;;;;;;;;4994649;28;20516;-71
2021/10/01 14:28:28;;;;;;;2.08;0.50;;;;;;;;;;5014887;28;20066;-71
2021/10/01 14:30:53;;;;;;;1.20;0.63;;;;;;;;;;4997328;28;20076;-72
2021/10/01 14:33:19;;;;;;;2.08;0.52;;;;;;;;;;4997330;28;20392;-71
2021/10/01 14:35:44;;;;;;;2.47;0.50;;;;;;;;;;4997321;28;20048;-73
2021/10/01 14:38:10;;;;;;;3.07;0.50;;;;;;;;;;5013274;28;20026;-71
2021/10/01 14:40:38;;;;;;;3.40;0.80;;;;;;;;;;4967076;28;20269;-72
2021/10/01 14:43:04;;;;;;;2.42;0.50;;;;;;;;;;5014558;28;20033;-72
2021/10/01 14:45:29;;;;;;;1.67;0.55;;;;;;;;;;4996977;28;20049;-72
2021/10/01 14:47:54;;;;;;;2.00;0.50;;;;;;;;;;4980294;28;20026;-71
2021/10/01 14:50:19;;;;;;;1.05;0.40;;;;;;;;;;4980053;28;20036;-72
2021/10/01 14:52:44;;;;;;;2.80;0.50;;;;;;;;;;5013915;28;20029;-72
2021/10/01 14:55:10;;;;;;;1.17;0.40;;;;;;;;;;4992170;28;20022;-70
2021/10/01 14:57:36;;;;;;;2.25;0.47;;;;;;;;;;5013781;28;20046;-72
2021/10/01 15:00:03;;;;;;;2.15;0.40;;;;;;;;;;4980799;28;20018;-72
2021/10/01 15:02:28;;;;;;;1.55;0.65;;;;;;;;;;5014379;28;20153;-71
2021/10/01 15:04:53;;;;;;;0.77;0.40;;;;;;;;;;5014412;28;20113;-72
2021/10/01 15:07:19;;;;;;;3.10;0.60;;;;;;;;;;5013532;28;20029;-72
2021/10/01 15:09:44;;;;;;;4.00;0.60;;;;;;;;;;4994902;28;20034;-72
2021/10/01 15:12:09;;;;;;;1.57;0.70;;;;;;;;;;5001428;28;20102;-72
2021/10/01 15:14:34;;;;;;;1.80;0.30;;;;;;;;;;5014612;28;20391;-72
2021/10/01 15:17:00;;;;;;;2.35;0.40;;;;;;;;;;4996374;28;20414;-71
2021/10/01 15:19:25;;;;;;;1.98;0.30;;;;;;;;;;4995166;28;20030;-72
2021/10/01 15:21:50;;;;;;;3.00;0.68;;;;;;;;;;4995981;28;20025;-72
2021/10/01 15:24:15;;;;;;;0.95;0.40;;;;;;;;;;5014322;28;20435;-73
2021/10/01 15:26:41;;;;;;;4.20;0.40;;;;;;;;;;5013311;28;20025;-71
2021/10/01 15:29:06;;;;;;;1.15;0.40;;;;;;;;;;4996231;28;20458;-72
2021/10/01 15:31:32;;;;;;;1.70;0.30;;;;;;;;;;5013705;28;20042;-71
2021/10/01 15:33:57;;;;;;;3.28;0.40;;;;;;;;;;4996426;28;20049;-72
2021/10/01 15:36:24;;;;;;;0.90;0.38;;;;;;;;;;5013842;28;20024;-71
2021/10/01 15:38:49;;;;;;;1.08;0.40;;;;;;;;;;4996405;28;20026;-71
2021/10/01 15:41:15;;;;;;;1.50;0.40;;;;;;;;;;5013248;28;20365;-71
2021/10/01 15:43:40;;;;;;;2.55;0.40;;;;;;;;;;4980082;28;20491;-71
2021/10/01 15:46:05;;;;;;;1.13;0.60;;;;;;;;;;4995781;28;20148;-73
2021/10/01 15:48:31;;;;;;;1.42;0.43;;;;;;;;;;5008334;28;20037;-73
2021/10/01 15:50:59;;;;;;;2.13;0.40;;;;;;;;;;4994644;28;20022;-72
2021/10/01 15:53:24;;;;;;;2.22;0.65;;;;;;;;;;4976494;28;20477;-72
2021/10/01 15:55:49;;;;;;;2.10;0.50;;;;;;;;;;5004803;28;20114;-72
2021/10/01 15:58:15;;;;;;;2.10;0.40;;;;;;;;;;5013249;28;20018;-72
2021/10/01 16:00:42;;;;;;;3.08;0.55;;;;;;;;;;4996077;28;20076;-72
2021/10/01 16:03:08;;;;;;;3.42;0.70;;;;;;;;;;4995979;28;20491;-71
2021/10/01 16:05:33;;;;;;;1.73;0.50;;;;;;;;;;4995854;28;20383;-71
2021/10/01 16:07:58;;;;;;;1.00;0.47;;;;;;;;;;5011651;28;20025;-71
2021/10/01 16:10:24;;;;;;;2.23;0.60;;;;;;;;;;4976203;28;20397;-71
2021/10/01 16:12:51;;;;;;;1.77;0.40;;;;;;;;;;4991098;28;20277;-72